EXS29E LFLB-EGBB
Flight info
| Callsign | EXS29E |
|---|---|
| Flight time | 1h 20m |
| Altitude | 34000 |
| Route | BUSIL DCT AMORO DCT MOMIL DCT BAGBI DCT SIZZA DCT LAULY DCT BRY DCT CLM DCT KOPOR DCT ABNUR DCT DIMAL DCT ALESO T420 HEMEL |
| Aircraft | B738/M-SDE2E3FGHIRWXY/LB1 |
Departure
| Time | 2026-04-28 22:10 |
|---|---|
| Airport | Chambéry Aix les Bains airport (LFLB) |
Arrival
| Time | 2026-04-28 23:31 |
|---|---|
| Airport | Birmingham Airport (EGBB) |
| Time | Latitude | Longitude | Altitude | Speed | Heading |
|---|---|---|---|---|---|
| 2026-04-28 21:52 | 45.63886 | 5.88335 | 782 ft | 0 kts | 86° |
| 2026-04-28 22:03 | 45.63885 | 5.88309 | 782 ft | 4 kts | 86° |
| 2026-04-28 22:03 | 45.63883 | 5.88275 | 782 ft | 4 kts | 95° |
| 2026-04-28 22:03 | 45.63887 | 5.88253 | 782 ft | 4 kts | 134° |
| 2026-04-28 22:04 | 45.63914 | 5.88239 | 782 ft | 1 kts | 177° |
| 2026-04-28 22:04 | 45.63918 | 5.88239 | 782 ft | 0 kts | 177° |
| 2026-04-28 22:06 | 45.63912 | 5.88240 | 782 ft | 2 kts | 176° |
| 2026-04-28 22:06 | 45.63877 | 5.88243 | 782 ft | 8 kts | 176° |
| 2026-04-28 22:06 | 45.63807 | 5.88236 | 782 ft | 12 kts | 192° |
| 2026-04-28 22:06 | 45.63714 | 5.88234 | 782 ft | 15 kts | 177° |
| 2026-04-28 22:07 | 45.63609 | 5.88241 | 782 ft | 16 kts | 177° |
| 2026-04-28 22:07 | 45.63504 | 5.88251 | 782 ft | 15 kts | 175° |
| 2026-04-28 22:07 | 45.63403 | 5.88262 | 782 ft | 14 kts | 176° |
| 2026-04-28 22:07 | 45.63306 | 5.88268 | 782 ft | 14 kts | 177° |
| 2026-04-28 22:08 | 45.63213 | 5.88271 | 782 ft | 13 kts | 188° |
| 2026-04-28 22:08 | 45.63152 | 5.88187 | 783 ft | 13 kts | 259° |
| 2026-04-28 22:08 | 45.63127 | 5.88092 | 784 ft | 10 kts | 210° |
| 2026-04-28 22:08 | 45.63057 | 5.88084 | 783 ft | 11 kts | 176° |
| 2026-04-28 22:09 | 45.62980 | 5.88121 | 783 ft | 12 kts | 149° |
| 2026-04-28 22:09 | 45.62916 | 5.88128 | 784 ft | 7 kts | 222° |
| 2026-04-28 22:09 | 45.62946 | 5.88092 | 783 ft | 7 kts | 356° |
| 2026-04-28 22:09 | 45.62947 | 5.88092 | 783 ft | 0 kts | 356° |
| 2026-04-28 22:10 | 45.62995 | 5.88087 | 783 ft | 38 kts | 356° |
| 2026-04-28 22:10 | 45.63614 | 5.88037 | 782 ft | 136 kts | 355° |
| 2026-04-28 22:10 | 45.64758 | 5.87953 | 1264 ft | 181 kts | 355° |
| 2026-04-28 22:10 | 45.66028 | 5.87825 | 2551 ft | 176 kts | 353° |
| 2026-04-28 22:11 | 45.67225 | 5.87673 | 3871 ft | 171 kts | 353° |
| 2026-04-28 22:11 | 45.68498 | 5.87564 | 4499 ft | 200 kts | 356° |
| 2026-04-28 22:11 | 45.70001 | 5.87463 | 4782 ft | 232 kts | 356° |
| 2026-04-28 22:11 | 45.71643 | 5.87042 | 5215 ft | 253 kts | 334° |
| 2026-04-28 22:12 | 45.72924 | 5.85260 | 5863 ft | 266 kts | 295° |
| 2026-04-28 22:12 | 45.73230 | 5.82668 | 6829 ft | 271 kts | 262° |
| 2026-04-28 22:12 | 45.72587 | 5.80130 | 7850 ft | 274 kts | 239° |
| 2026-04-28 22:12 | 45.71704 | 5.77705 | 8885 ft | 277 kts | 249° |
| 2026-04-28 22:13 | 45.71056 | 5.75092 | 9841 ft | 281 kts | 252° |
| 2026-04-28 22:13 | 45.70454 | 5.72388 | 10599 ft | 294 kts | 253° |
| 2026-04-28 22:13 | 45.69806 | 5.69460 | 10860 ft | 323 kts | 252° |
| 2026-04-28 22:13 | 45.69103 | 5.66329 | 11488 ft | 336 kts | 252° |
| 2026-04-28 22:14 | 45.68385 | 5.63120 | 12339 ft | 341 kts | 255° |
| 2026-04-28 22:14 | 45.68164 | 5.59748 | 13191 ft | 345 kts | 277° |
| 2026-04-28 22:14 | 45.68523 | 5.57542 | 13820 ft | 346 kts | 290° |
| 2026-04-28 22:14 | 45.69681 | 5.54515 | 14677 ft | 350 kts | 303° |
| 2026-04-28 22:15 | 45.71061 | 5.51609 | 15449 ft | 356 kts | 304° |
| 2026-04-28 22:15 | 45.72469 | 5.48669 | 16208 ft | 361 kts | 304° |
| 2026-04-28 22:15 | 45.74337 | 5.44693 | 17217 ft | 366 kts | 303° |
| 2026-04-28 22:15 | 45.75751 | 5.41641 | 17970 ft | 370 kts | 303° |
| 2026-04-28 22:16 | 45.77282 | 5.38652 | 18673 ft | 375 kts | 311° |
| 2026-04-28 22:16 | 45.79181 | 5.36062 | 19366 ft | 380 kts | 321° |
| 2026-04-28 22:16 | 45.80615 | 5.34525 | 19840 ft | 382 kts | 323° |
| 2026-04-28 22:16 | 45.82777 | 5.32278 | 20495 ft | 386 kts | 323° |
| 2026-04-28 22:17 | 45.84968 | 5.30010 | 21145 ft | 390 kts | 323° |
| 2026-04-28 22:17 | 45.87174 | 5.27710 | 21777 ft | 394 kts | 323° |
| 2026-04-28 22:17 | 45.89395 | 5.25375 | 22376 ft | 397 kts | 323° |
| 2026-04-28 22:17 | 45.91600 | 5.23040 | 22948 ft | 401 kts | 323° |
| 2026-04-28 22:18 | 45.93853 | 5.20644 | 23508 ft | 405 kts | 323° |
| 2026-04-28 22:18 | 45.96126 | 5.18222 | 24050 ft | 409 kts | 323° |
| 2026-04-28 22:18 | 45.98418 | 5.15775 | 24574 ft | 412 kts | 323° |
| 2026-04-28 22:18 | 46.00750 | 5.13285 | 25095 ft | 415 kts | 323° |
| 2026-04-28 22:19 | 46.03078 | 5.10797 | 25591 ft | 419 kts | 323° |
| 2026-04-28 22:19 | 46.05364 | 5.08189 | 26054 ft | 421 kts | 317° |
| 2026-04-28 22:19 | 46.07453 | 5.05207 | 26530 ft | 424 kts | 313° |
| 2026-04-28 22:19 | 46.09465 | 5.02158 | 26974 ft | 427 kts | 313° |
| 2026-04-28 22:20 | 46.11418 | 4.99171 | 27390 ft | 430 kts | 313° |
| 2026-04-28 22:20 | 46.13480 | 4.96034 | 27804 ft | 433 kts | 313° |
| 2026-04-28 22:20 | 46.15568 | 4.92887 | 28214 ft | 435 kts | 313° |
| 2026-04-28 22:20 | 46.17678 | 4.89730 | 28609 ft | 438 kts | 313° |
| 2026-04-28 22:21 | 46.19801 | 4.86560 | 28994 ft | 441 kts | 313° |
| 2026-04-28 22:21 | 46.21938 | 4.83373 | 29370 ft | 443 kts | 313° |
| 2026-04-28 22:21 | 46.24088 | 4.80161 | 29734 ft | 446 kts | 313° |
| 2026-04-28 22:21 | 46.26246 | 4.76934 | 30077 ft | 448 kts | 313° |
| 2026-04-28 22:22 | 46.28426 | 4.73694 | 30384 ft | 451 kts | 315° |
| 2026-04-28 22:22 | 46.30831 | 4.70761 | 30659 ft | 455 kts | 325° |
| 2026-04-28 22:22 | 46.33524 | 4.68332 | 30993 ft | 457 kts | 329° |
| 2026-04-28 22:22 | 46.36255 | 4.65993 | 31431 ft | 456 kts | 329° |
| 2026-04-28 22:23 | 46.38972 | 4.63648 | 31871 ft | 454 kts | 328° |
| 2026-04-28 22:23 | 46.41663 | 4.61278 | 32347 ft | 451 kts | 328° |
| 2026-04-28 22:23 | 46.44336 | 4.58891 | 32720 ft | 451 kts | 328° |
| 2026-04-28 22:23 | 46.47037 | 4.56567 | 33059 ft | 452 kts | 333° |
| 2026-04-28 22:24 | 46.49990 | 4.55025 | 33451 ft | 452 kts | 347° |
| 2026-04-28 22:24 | 46.53104 | 4.54439 | 33860 ft | 451 kts | 358° |
| 2026-04-28 22:24 | 46.56245 | 4.54764 | 33992 ft | 457 kts | 7° |
| 2026-04-28 22:25 | 46.62551 | 4.56095 | 34001 ft | 457 kts | 7° |
| 2026-04-28 22:25 | 46.68797 | 4.57347 | 33995 ft | 450 kts | 7° |
| 2026-04-28 22:26 | 46.75022 | 4.58508 | 34002 ft | 452 kts | 6° |
| 2026-04-28 22:26 | 46.81283 | 4.58752 | 34005 ft | 452 kts | 351° |
| 2026-04-28 22:27 | 46.87274 | 4.56105 | 34011 ft | 451 kts | 335° |
| 2026-04-28 22:27 | 46.92985 | 4.52288 | 34000 ft | 452 kts | 334° |
| 2026-04-28 22:28 | 46.98675 | 4.48479 | 34002 ft | 453 kts | 335° |
| 2026-04-28 22:28 | 47.04450 | 4.44670 | 34001 ft | 453 kts | 335° |
| 2026-04-28 22:29 | 47.10159 | 4.40924 | 34000 ft | 452 kts | 335° |
| 2026-04-28 22:29 | 47.15905 | 4.37149 | 34001 ft | 452 kts | 335° |
| 2026-04-28 22:30 | 47.21635 | 4.33359 | 33997 ft | 451 kts | 335° |
| 2026-04-28 22:30 | 47.27360 | 4.29583 | 34001 ft | 451 kts | 335° |
| 2026-04-28 22:31 | 47.33115 | 4.25780 | 34001 ft | 450 kts | 335° |
| 2026-04-28 22:31 | 47.38789 | 4.22014 | 34003 ft | 450 kts | 335° |
| 2026-04-28 22:32 | 47.44530 | 4.18192 | 34003 ft | 450 kts | 335° |
| 2026-04-28 22:32 | 47.50191 | 4.14416 | 34002 ft | 449 kts | 335° |
| 2026-04-28 22:33 | 47.55921 | 4.10586 | 34002 ft | 449 kts | 335° |
| 2026-04-28 22:33 | 47.61577 | 4.06809 | 34001 ft | 449 kts | 335° |
| 2026-04-28 22:34 | 47.67270 | 4.02999 | 34001 ft | 449 kts | 335° |
| 2026-04-28 22:34 | 47.72817 | 3.99258 | 34000 ft | 449 kts | 335° |
| 2026-04-28 22:35 | 47.78504 | 3.95433 | 34000 ft | 449 kts | 335° |
| 2026-04-28 22:35 | 47.84190 | 3.91601 | 34002 ft | 449 kts | 335° |
| 2026-04-28 22:36 | 47.89880 | 3.87757 | 33999 ft | 449 kts | 335° |
| 2026-04-28 22:36 | 47.95567 | 3.83905 | 34001 ft | 449 kts | 335° |
| 2026-04-28 22:37 | 48.01244 | 3.80051 | 34000 ft | 449 kts | 335° |
| 2026-04-28 22:37 | 48.06926 | 3.76186 | 34001 ft | 449 kts | 335° |
| 2026-04-28 22:38 | 48.12603 | 3.72308 | 34003 ft | 449 kts | 334° |
| 2026-04-28 22:38 | 48.17740 | 3.67094 | 34002 ft | 447 kts | 315° |
| 2026-04-28 22:39 | 48.21953 | 3.60246 | 34005 ft | 447 kts | 311° |
| 2026-04-28 22:39 | 48.26090 | 3.53371 | 34000 ft | 447 kts | 312° |
| 2026-04-28 22:40 | 48.30293 | 3.46494 | 34001 ft | 447 kts | 312° |
| 2026-04-28 22:40 | 48.34509 | 3.39631 | 34002 ft | 447 kts | 312° |
| 2026-04-28 22:41 | 48.38735 | 3.32777 | 33998 ft | 447 kts | 315° |
| 2026-04-28 22:41 | 48.43792 | 3.27365 | 33999 ft | 448 kts | 334° |
| 2026-04-28 22:42 | 48.49534 | 3.23715 | 33999 ft | 448 kts | 337° |
| 2026-04-28 22:42 | 48.55304 | 3.20141 | 34001 ft | 448 kts | 336° |
| 2026-04-28 22:43 | 48.61052 | 3.16499 | 34001 ft | 448 kts | 336° |
| 2026-04-28 22:43 | 48.66792 | 3.12817 | 34002 ft | 448 kts | 336° |
| 2026-04-28 22:44 | 48.72534 | 3.09120 | 34002 ft | 448 kts | 336° |
| 2026-04-28 22:44 | 48.78274 | 3.05422 | 34002 ft | 448 kts | 336° |
| 2026-04-28 22:45 | 48.84011 | 3.01709 | 34002 ft | 448 kts | 335° |
| 2026-04-28 22:45 | 48.89393 | 2.97377 | 34007 ft | 448 kts | 329° |
| 2026-04-28 22:46 | 48.94748 | 2.92548 | 34001 ft | 448 kts | 328° |
| 2026-04-28 22:46 | 49.00112 | 2.87736 | 34000 ft | 448 kts | 329° |
| 2026-04-28 22:47 | 49.05441 | 2.83020 | 33988 ft | 434 kts | 329° |
| 2026-04-28 22:47 | 49.10627 | 2.78449 | 33999 ft | 429 kts | 329° |
| 2026-04-28 22:48 | 49.15822 | 2.73860 | 34017 ft | 437 kts | 329° |
| 2026-04-28 22:48 | 49.21169 | 2.69121 | 34012 ft | 451 kts | 329° |
| 2026-04-28 22:49 | 49.26663 | 2.64237 | 34010 ft | 460 kts | 329° |
| 2026-04-28 22:49 | 49.32169 | 2.59322 | 33999 ft | 461 kts | 329° |
| 2026-04-28 22:50 | 49.37714 | 2.54378 | 33996 ft | 461 kts | 329° |
| 2026-04-28 22:50 | 49.43282 | 2.49393 | 33997 ft | 459 kts | 329° |
| 2026-04-28 22:51 | 49.48752 | 2.44473 | 34001 ft | 458 kts | 329° |
| 2026-04-28 22:51 | 49.54300 | 2.39553 | 33998 ft | 456 kts | 330° |
| 2026-04-28 22:52 | 49.59829 | 2.34910 | 34000 ft | 455 kts | 331° |
| 2026-04-28 22:52 | 49.65398 | 2.30260 | 34003 ft | 455 kts | 331° |
| 2026-04-28 22:53 | 49.70959 | 2.25561 | 34002 ft | 456 kts | 330° |
| 2026-04-28 22:53 | 49.76522 | 2.20827 | 34004 ft | 457 kts | 330° |
| 2026-04-28 22:54 | 49.82092 | 2.16071 | 34002 ft | 458 kts | 330° |
| 2026-04-28 22:54 | 49.87674 | 2.11294 | 34002 ft | 458 kts | 330° |
| 2026-04-28 22:55 | 49.93259 | 2.06502 | 34001 ft | 459 kts | 330° |
| 2026-04-28 22:55 | 49.98849 | 2.01693 | 34000 ft | 460 kts | 330° |
| 2026-04-28 22:56 | 50.04330 | 1.96966 | 34002 ft | 460 kts | 330° |
| 2026-04-28 22:56 | 50.09922 | 1.92130 | 34001 ft | 460 kts | 330° |
| 2026-04-28 22:57 | 50.15506 | 1.87274 | 34002 ft | 460 kts | 329° |
| 2026-04-28 22:57 | 50.20473 | 1.81075 | 34009 ft | 458 kts | 315° |
| 2026-04-28 22:58 | 50.24981 | 1.74050 | 33997 ft | 458 kts | 314° |
| 2026-04-28 22:58 | 50.29500 | 1.67045 | 34001 ft | 457 kts | 315° |
| 2026-04-28 22:59 | 50.34043 | 1.60077 | 34001 ft | 457 kts | 315° |
| 2026-04-28 22:59 | 50.38585 | 1.53116 | 34001 ft | 457 kts | 315° |
| 2026-04-28 23:00 | 50.43121 | 1.46141 | 34001 ft | 457 kts | 315° |
| 2026-04-28 23:00 | 50.47651 | 1.39154 | 34001 ft | 456 kts | 315° |
| 2026-04-28 23:01 | 50.52087 | 1.32038 | 34001 ft | 456 kts | 312° |
| 2026-04-28 23:01 | 50.55625 | 1.25892 | 34002 ft | 456 kts | 312° |
| 2026-04-28 23:02 | 50.60684 | 1.17451 | 34002 ft | 456 kts | 314° |
| 2026-04-28 23:02 | 50.65194 | 1.10413 | 34001 ft | 456 kts | 315° |
| 2026-04-28 23:03 | 50.69695 | 1.03356 | 34001 ft | 456 kts | 314° |
| 2026-04-28 23:03 | 50.74109 | 0.96348 | 34002 ft | 457 kts | 314° |
| 2026-04-28 23:04 | 50.77821 | 0.90422 | 34001 ft | 457 kts | 314° |
| 2026-04-28 23:04 | 50.84521 | 0.79696 | 34001 ft | 457 kts | 314° |
| 2026-04-28 23:05 | 50.88990 | 0.72546 | 34001 ft | 457 kts | 314° |
| 2026-04-28 23:05 | 50.93471 | 0.65397 | 34000 ft | 457 kts | 314° |
| 2026-04-28 23:06 | 50.97941 | 0.58228 | 34001 ft | 457 kts | 314° |
| 2026-04-28 23:06 | 51.02368 | 0.50999 | 34001 ft | 457 kts | 314° |
| 2026-04-28 23:07 | 51.06706 | 0.43895 | 33981 ft | 431 kts | 314° |
| 2026-04-28 23:07 | 51.08786 | 0.40594 | 33978 ft | 414 kts | 315° |
| 2026-04-28 23:07 | 51.10856 | 0.37451 | 33897 ft | 413 kts | 316° |
| 2026-04-28 23:08 | 51.12942 | 0.34321 | 33617 ft | 410 kts | 316° |
| 2026-04-28 23:08 | 51.15005 | 0.31221 | 33239 ft | 405 kts | 316° |
| 2026-04-28 23:08 | 51.17036 | 0.28151 | 32883 ft | 400 kts | 316° |
| 2026-04-28 23:08 | 51.19038 | 0.25105 | 32516 ft | 396 kts | 316° |
| 2026-04-28 23:09 | 51.21019 | 0.22079 | 32148 ft | 393 kts | 315° |
| 2026-04-28 23:09 | 51.22983 | 0.19070 | 31780 ft | 389 kts | 315° |
| 2026-04-28 23:09 | 51.24925 | 0.16089 | 31414 ft | 386 kts | 315° |
| 2026-04-28 23:09 | 51.26855 | 0.13123 | 31047 ft | 383 kts | 315° |
| 2026-04-28 23:10 | 51.28767 | 0.10182 | 30693 ft | 380 kts | 315° |
| 2026-04-28 23:10 | 51.30662 | 0.07265 | 30338 ft | 377 kts | 315° |
| 2026-04-28 23:10 | 51.32554 | 0.04379 | 29984 ft | 374 kts | 318° |
| 2026-04-28 23:10 | 51.34632 | 0.01896 | 29621 ft | 372 kts | 328° |
| 2026-04-28 23:11 | 51.36755 | -0.00120 | 29290 ft | 368 kts | 329° |
| 2026-04-28 23:11 | 51.38965 | -0.02169 | 28922 ft | 365 kts | 329° |
| 2026-04-28 23:11 | 51.41154 | -0.04201 | 28561 ft | 362 kts | 329° |
| 2026-04-28 23:11 | 51.43316 | -0.06223 | 28203 ft | 360 kts | 329° |
| 2026-04-28 23:12 | 51.45464 | -0.08248 | 27852 ft | 357 kts | 329° |
| 2026-04-28 23:12 | 51.47593 | -0.10267 | 27495 ft | 354 kts | 328° |
| 2026-04-28 23:12 | 51.49704 | -0.12277 | 27145 ft | 351 kts | 328° |
| 2026-04-28 23:12 | 51.51796 | -0.14274 | 26801 ft | 349 kts | 328° |
| 2026-04-28 23:13 | 51.53870 | -0.16257 | 26451 ft | 346 kts | 328° |
| 2026-04-28 23:13 | 51.55933 | -0.18231 | 26108 ft | 344 kts | 328° |
| 2026-04-28 23:13 | 51.57979 | -0.20192 | 25768 ft | 341 kts | 328° |
| 2026-04-28 23:13 | 51.60007 | -0.22137 | 25430 ft | 339 kts | 328° |
| 2026-04-28 23:14 | 51.62025 | -0.24074 | 25093 ft | 336 kts | 328° |
| 2026-04-28 23:14 | 51.64028 | -0.25999 | 24762 ft | 334 kts | 328° |
| 2026-04-28 23:14 | 51.66015 | -0.27910 | 24425 ft | 332 kts | 328° |
| 2026-04-28 23:14 | 51.67992 | -0.29805 | 24095 ft | 329 kts | 328° |
| 2026-04-28 23:15 | 51.69954 | -0.31681 | 23766 ft | 327 kts | 328° |
| 2026-04-28 23:15 | 51.71906 | -0.33549 | 23450 ft | 325 kts | 328° |
| 2026-04-28 23:15 | 51.73847 | -0.35409 | 23116 ft | 324 kts | 328° |
| 2026-04-28 23:15 | 51.75787 | -0.37269 | 22792 ft | 324 kts | 328° |
| 2026-04-28 23:16 | 51.77729 | -0.39135 | 22471 ft | 327 kts | 328° |
| 2026-04-28 23:16 | 51.79704 | -0.41035 | 22149 ft | 335 kts | 328° |
| 2026-04-28 23:16 | 51.81719 | -0.42981 | 21724 ft | 340 kts | 328° |
| 2026-04-28 23:16 | 51.83752 | -0.44964 | 21266 ft | 343 kts | 328° |
| 2026-04-28 23:17 | 51.85767 | -0.46935 | 20799 ft | 343 kts | 328° |
| 2026-04-28 23:17 | 51.87805 | -0.48932 | 20344 ft | 343 kts | 328° |
| 2026-04-28 23:17 | 51.89843 | -0.50928 | 19885 ft | 342 kts | 328° |
| 2026-04-28 23:17 | 51.91905 | -0.52949 | 19416 ft | 341 kts | 328° |
| 2026-04-28 23:18 | 51.93908 | -0.54913 | 18958 ft | 341 kts | 328° |
| 2026-04-28 23:18 | 51.95932 | -0.56896 | 18508 ft | 340 kts | 328° |
| 2026-04-28 23:18 | 51.97955 | -0.58872 | 18045 ft | 339 kts | 328° |
| 2026-04-28 23:18 | 51.99974 | -0.60845 | 17590 ft | 338 kts | 328° |
| 2026-04-28 23:19 | 52.01981 | -0.62809 | 17133 ft | 337 kts | 328° |
| 2026-04-28 23:19 | 52.03980 | -0.64768 | 16685 ft | 335 kts | 328° |
| 2026-04-28 23:19 | 52.05975 | -0.66724 | 16229 ft | 334 kts | 328° |
| 2026-04-28 23:19 | 52.07961 | -0.68675 | 15783 ft | 333 kts | 328° |
| 2026-04-28 23:20 | 52.09933 | -0.70615 | 15337 ft | 331 kts | 328° |
| 2026-04-28 23:20 | 52.11902 | -0.72553 | 14888 ft | 330 kts | 328° |
| 2026-04-28 23:20 | 52.13858 | -0.74481 | 14444 ft | 328 kts | 328° |
| 2026-04-28 23:20 | 52.15803 | -0.76400 | 14010 ft | 326 kts | 328° |
| 2026-04-28 23:21 | 52.17744 | -0.78316 | 13563 ft | 325 kts | 328° |
| 2026-04-28 23:21 | 52.19668 | -0.80218 | 13128 ft | 323 kts | 328° |
| 2026-04-28 23:21 | 52.21586 | -0.82115 | 12693 ft | 321 kts | 328° |
| 2026-04-28 23:21 | 52.23453 | -0.84083 | 12243 ft | 319 kts | 319° |
| 2026-04-28 23:22 | 52.24827 | -0.86866 | 11828 ft | 315 kts | 297° |
| 2026-04-28 23:22 | 52.25509 | -0.90232 | 11426 ft | 312 kts | 282° |
| 2026-04-28 23:22 | 52.25971 | -0.93677 | 11005 ft | 310 kts | 282° |
| 2026-04-28 23:22 | 52.26419 | -0.97107 | 10584 ft | 308 kts | 282° |
| 2026-04-28 23:23 | 52.26850 | -1.00396 | 10185 ft | 306 kts | 282° |
| 2026-04-28 23:23 | 52.27298 | -1.03764 | 9903 ft | 295 kts | 282° |
| 2026-04-28 23:23 | 52.27720 | -1.06910 | 9887 ft | 276 kts | 282° |
| 2026-04-28 23:23 | 52.28141 | -1.10026 | 9176 ft | 285 kts | 282° |
| 2026-04-28 23:24 | 52.28566 | -1.13168 | 8678 ft | 280 kts | 282° |
| 2026-04-28 23:24 | 52.28981 | -1.16234 | 8278 ft | 273 kts | 282° |
| 2026-04-28 23:24 | 52.29385 | -1.19218 | 7903 ft | 265 kts | 282° |
| 2026-04-28 23:24 | 52.29778 | -1.22125 | 7546 ft | 260 kts | 282° |
| 2026-04-28 23:25 | 52.30166 | -1.24989 | 7206 ft | 258 kts | 282° |
| 2026-04-28 23:25 | 52.30552 | -1.27849 | 6862 ft | 257 kts | 282° |
| 2026-04-28 23:25 | 52.30940 | -1.30738 | 6521 ft | 263 kts | 282° |
| 2026-04-28 23:25 | 52.31334 | -1.33674 | 6100 ft | 266 kts | 282° |
| 2026-04-28 23:26 | 52.31728 | -1.36716 | 5491 ft | 277 kts | 281° |
| 2026-04-28 23:26 | 52.32110 | -1.39812 | 5030 ft | 279 kts | 281° |
| 2026-04-28 23:26 | 52.32488 | -1.42897 | 4636 ft | 273 kts | 281° |
| 2026-04-28 23:26 | 52.32855 | -1.45894 | 4258 ft | 264 kts | 281° |
| 2026-04-28 23:27 | 52.33210 | -1.48787 | 3905 ft | 255 kts | 281° |
| 2026-04-28 23:27 | 52.33554 | -1.51589 | 3564 ft | 248 kts | 281° |
| 2026-04-28 23:27 | 52.33887 | -1.54307 | 3235 ft | 240 kts | 281° |
| 2026-04-28 23:27 | 52.34210 | -1.56950 | 2919 ft | 233 kts | 281° |
| 2026-04-28 23:28 | 52.34524 | -1.59526 | 2616 ft | 230 kts | 281° |
| 2026-04-28 23:28 | 52.34872 | -1.62079 | 2313 ft | 231 kts | 290° |
| 2026-04-28 23:28 | 52.35813 | -1.64123 | 1999 ft | 231 kts | 322° |
| 2026-04-28 23:28 | 52.37112 | -1.65602 | 1704 ft | 225 kts | 324° |
| 2026-04-28 23:29 | 52.38370 | -1.66986 | 1622 ft | 213 kts | 325° |
| 2026-04-28 23:29 | 52.39589 | -1.68323 | 1551 ft | 202 kts | 324° |
| 2026-04-28 23:29 | 52.40716 | -1.69585 | 1294 ft | 194 kts | 324° |
| 2026-04-28 23:29 | 52.41796 | -1.70792 | 1030 ft | 180 kts | 324° |
| 2026-04-28 23:30 | 52.42784 | -1.71893 | 796 ft | 164 kts | 324° |
| 2026-04-28 23:30 | 52.43678 | -1.72891 | 631 ft | 147 kts | 323° |
| 2026-04-28 23:30 | 52.44494 | -1.73809 | 405 ft | 140 kts | 325° |
| 2026-04-28 23:30 | 52.45217 | -1.74608 | 326 ft | 112 kts | 326° |
| 2026-04-28 23:31 | 52.45702 | -1.75151 | 322 ft | 62 kts | 326° |
| 2026-04-28 23:31 | 52.46009 | -1.75499 | 311 ft | 38 kts | 326° |
| 2026-04-28 23:31 | 52.46141 | -1.75605 | 309 ft | 16 kts | 11° |
| 2026-04-28 23:31 | 52.46213 | -1.75464 | 305 ft | 16 kts | 72° |
| 2026-04-28 23:32 | 52.46148 | -1.75334 | 303 ft | 15 kts | 143° |
| 2026-04-28 23:32 | 52.46067 | -1.75237 | 303 ft | 14 kts | 145° |
| 2026-04-28 23:32 | 52.45978 | -1.75130 | 304 ft | 21 kts | 143° |
| 2026-04-28 23:32 | 52.45833 | -1.74942 | 307 ft | 31 kts | 141° |
| 2026-04-28 23:33 | 52.45704 | -1.74810 | 312 ft | 14 kts | 149° |
| 2026-04-28 23:33 | 52.45641 | -1.74748 | 316 ft | 9 kts | 147° |
| 2026-04-28 23:33 | 52.45589 | -1.74694 | 319 ft | 9 kts | 147° |
| 2026-04-28 23:33 | 52.45520 | -1.74621 | 322 ft | 18 kts | 145° |
| 2026-04-28 23:34 | 52.45442 | -1.74457 | 322 ft | 19 kts | 116° |
| 2026-04-28 23:34 | 52.45377 | -1.74255 | 321 ft | 19 kts | 115° |
| 2026-04-28 23:34 | 52.45316 | -1.74054 | 321 ft | 20 kts | 117° |
| 2026-04-28 23:34 | 52.45220 | -1.73911 | 321 ft | 17 kts | 147° |
| 2026-04-28 23:35 | 52.45116 | -1.73795 | 323 ft | 18 kts | 147° |
| 2026-04-28 23:35 | 52.44997 | -1.73703 | 323 ft | 18 kts | 145° |
| 2026-04-28 23:35 | 52.44905 | -1.73574 | 323 ft | 19 kts | 112° |
| 2026-04-28 23:35 | 52.44944 | -1.73401 | 323 ft | 12 kts | 66° |
| 2026-04-28 23:36 | 52.44927 | -1.73365 | 321 ft | 5 kts | 149° |
| 2026-04-28 23:36 | 52.44908 | -1.73345 | 323 ft | 0 kts | 146° |